Cotui, Dominican Republic
Current Conditions -  °F | °C
As of 2:00 PM on Sunday 21 Dec 2014 (Local Time) from MDCY Reporting Station
Broken Clouds Broken Clouds  
Wind Chill: 79°   Ceiling: 1800
Heat Index: 83°   Visibility: 6mi
Dew Point: 77°   Wind: 0mph
Humidity: 94%   Direction: NA
Pressure: 30"   Gusts: NA
Location:  19.06°N, 70.15°W
Report Text: MDCY 211800Z 00000KT 9999 BKN018 SCT070 26/25 Q1016
Loading
Personal Weather Stations






























Interactive Weather Map New forecast layout! Learn more

10-Day Weather Forecast

Advertisements
Track Severe Weather on mobile